createdAt,value
2019-01-20T00:00:51.797Z,10.43
2019-01-20T00:05:00.251Z,13.07
2019-01-20T00:09:10.747Z,12.10
2019-01-20T00:13:18.903Z,11.23
2019-01-20T00:17:30.375Z,11.57
2019-01-20T00:21:38.164Z,13.23
2019-01-20T00:25:45.888Z,12.23
2019-01-20T00:29:54.030Z,10.30
2019-01-20T00:34:02.138Z,15.10
2019-01-20T00:38:10.532Z,12.33
2019-01-20T00:42:19.184Z,16.67
2019-01-20T00:46:27.198Z,14.97
2019-01-20T00:50:35.106Z,15.03
2019-01-20T00:54:43.032Z,16.90
2019-01-20T00:58:51.065Z,15.13
2019-01-20T01:02:59.550Z,17.33
2019-01-20T01:07:09.822Z,12.70
2019-01-20T01:11:17.578Z,13.17
2019-01-20T01:15:25.519Z,11.03
2019-01-20T01:19:33.231Z,9.73
2019-01-20T01:23:41.367Z,15.37
2019-01-20T01:27:49.488Z,14.73
2019-01-20T01:31:57.704Z,18.23
2019-01-20T01:36:05.964Z,23.77
2019-01-20T01:40:15.028Z,28.87
2019-01-20T01:44:22.935Z,30.47
2019-01-20T01:48:32.014Z,33.07
2019-01-20T01:52:40.278Z,39.33
2019-01-20T01:56:48.207Z,37.33
2019-01-20T02:00:56.219Z,36.13
2019-01-20T02:05:04.955Z,38.83
2019-01-20T02:09:13.503Z,34.83
2019-01-20T02:13:21.222Z,33.33
2019-01-20T02:17:29.224Z,36.77
2019-01-20T02:21:37.383Z,37.43
2019-01-20T02:25:45.444Z,39.83
2019-01-20T02:29:53.466Z,38.60
2019-01-20T02:34:01.382Z,36.97
2019-01-20T02:38:09.389Z,39.00
2019-01-20T02:42:17.397Z,37.77
2019-01-20T02:46:25.447Z,38.60
2019-01-20T02:50:33.473Z,35.47
2019-01-20T02:54:41.847Z,33.83
2019-01-20T02:58:49.757Z,41.77
2019-01-20T03:02:57.774Z,46.77
2019-01-20T03:07:05.945Z,39.47
2019-01-20T03:11:13.980Z,43.50
2019-01-20T03:15:22.019Z,37.70
2019-01-20T03:19:29.772Z,37.10
2019-01-20T03:23:37.402Z,34.00
2019-01-20T03:27:45.910Z,40.10
2019-01-20T03:31:54.031Z,41.13
2019-01-20T03:36:01.834Z,41.33
2019-01-20T03:40:11.624Z,45.47
2019-01-20T03:44:19.530Z,48.60
2019-01-20T03:48:27.273Z,41.30
2019-01-20T03:52:35.009Z,40.30
2019-01-20T03:56:43.024Z,43.37
2019-01-20T04:00:51.138Z,49.67
2019-01-20T04:04:59.562Z,47.13
2019-01-20T04:09:08.886Z,38.87
2019-01-20T04:13:17.281Z,47.40
2019-01-20T04:17:25.297Z,48.20
2019-01-20T04:21:33.014Z,50.10
2019-01-20T04:25:40.639Z,56.10
2019-01-20T04:29:48.551Z,99.53
2019-01-20T04:33:57.015Z,52.13
2019-01-20T04:38:05.091Z,50.27
2019-01-20T04:42:14.130Z,56.60
2019-01-20T04:46:21.838Z,52.73
2019-01-20T04:50:30.079Z,52.30
2019-01-20T04:54:38.467Z,61.00
2019-01-20T04:58:46.834Z,56.43
2019-01-20T05:02:54.774Z,52.17
2019-01-20T05:07:02.493Z,57.17
2019-01-20T05:11:10.123Z,58.67
2019-01-20T05:15:19.851Z,58.77
2019-01-20T05:19:27.792Z,48.73
2019-01-20T05:23:35.845Z,47.63
2019-01-20T05:27:43.978Z,48.20
2019-01-20T05:31:51.901Z,56.57
2019-01-20T05:35:59.416Z,49.40
2019-01-20T05:40:08.638Z,58.30
2019-01-20T05:44:16.548Z,53.13
2019-01-20T05:48:24.571Z,50.13
2019-01-20T05:52:32.217Z,61.27
2019-01-20T05:56:40.412Z,74.57
2019-01-20T06:00:48.208Z,65.67
2019-01-20T06:04:55.924Z,75.60
2019-01-20T06:09:05.248Z,65.33
2019-01-20T06:13:13.068Z,70.27
2019-01-20T06:17:20.801Z,69.60
2019-01-20T06:21:28.739Z,69.37
2019-01-20T06:25:36.764Z,69.87
2019-01-20T06:29:44.570Z,62.50
2019-01-20T06:33:52.191Z,89.43
2019-01-20T06:38:00.693Z,57.37
2019-01-20T06:42:08.752Z,67.87
2019-01-20T06:46:16.476Z,61.87
2019-01-20T06:50:25.392Z,86.17
2019-01-20T06:54:33.214Z,75.80
2019-01-20T06:58:41.620Z,78.27
2019-01-20T07:02:50.059Z,75.63
2019-01-20T07:06:57.885Z,63.67
2019-01-20T07:11:05.946Z,80.00
2019-01-20T07:15:19.633Z,103.30
2019-01-20T07:19:28.166Z,85.17
2019-01-20T07:23:36.104Z,80.10
2019-01-20T07:27:44.209Z,86.93
2019-01-20T07:31:52.072Z,87.97
2019-01-20T07:36:00.094Z,81.97
2019-01-20T07:40:10.147Z,74.73
2019-01-20T07:44:18.069Z,79.03
2019-01-20T07:48:26.275Z,75.77
2019-01-20T07:52:34.804Z,73.77
2019-01-20T07:56:43.021Z,77.77
2019-01-20T08:00:51.119Z,90.07
2019-01-20T08:04:58.911Z,80.63
2019-01-20T08:09:08.763Z,95.40
2019-01-20T08:13:24.023Z,98.43
2019-01-20T08:17:26.241Z,124.13
2019-01-20T08:21:34.273Z,89.93
2019-01-20T08:25:42.712Z,101.93
2019-01-20T08:29:51.126Z,87.87
2019-01-20T08:33:59.160Z,88.33
2019-01-20T08:38:07.569Z,118.70
2019-01-20T08:42:15.826Z,117.50
2019-01-20T08:46:55.028Z,110.27
2019-01-20T08:51:03.042Z,121.90
2019-01-20T08:55:12.020Z,121.77
2019-01-20T08:59:20.194Z,117.27
2019-01-20T09:03:28.445Z,148.07
2019-01-20T09:07:36.156Z,119.93
2019-01-20T09:11:44.177Z,143.77
2019-01-20T09:15:53.598Z,123.73
2019-01-20T09:20:02.008Z,129.23
2019-01-20T09:24:10.445Z,142.67
2019-01-20T09:28:18.766Z,108.97
2019-01-20T09:32:26.706Z,129.57
2019-01-20T09:36:34.799Z,128.07
2019-01-20T09:40:42.766Z,131.80
2019-01-20T09:44:51.074Z,144.07
2019-01-20T09:48:59.212Z,150.53
2019-01-20T09:53:07.588Z,160.90
2019-01-20T09:57:15.577Z,144.40
2019-01-20T10:01:23.447Z,154.50
2019-01-20T10:05:31.196Z,169.90
2019-01-20T10:09:40.141Z,144.17
2019-01-20T10:13:54.609Z,138.43
2019-01-20T10:17:57.862Z,133.10
2019-01-20T10:22:06.106Z,129.33
2019-01-20T10:26:14.148Z,134.53
2019-01-20T10:30:24.993Z,146.53
2019-01-20T10:34:33.740Z,139.80
2019-01-20T10:38:41.755Z,175.77
2019-01-20T10:42:49.908Z,161.83
2019-01-20T10:46:57.900Z,130.03
2019-01-20T10:51:06.717Z,126.03
2019-01-20T10:55:14.744Z,135.63
2019-01-20T10:59:22.808Z,232.77
2019-01-20T11:03:30.859Z,673.20
2019-01-20T11:07:41.554Z,163.23
2019-01-20T11:11:51.393Z,195.90
2019-01-20T11:15:59.371Z,187.50
2019-01-20T11:20:10.954Z,113.67
2019-01-20T11:24:18.787Z,139.40
2019-01-20T11:28:26.526Z,118.20
2019-01-20T11:32:34.593Z,102.90
2019-01-20T11:36:42.347Z,107.67
2019-01-20T11:40:52.151Z,109.83
2019-01-20T11:44:59.693Z,117.40
2019-01-20T11:49:07.450Z,117.77
2019-01-20T11:53:15.524Z,112.80
2019-01-20T11:57:23.584Z,141.17
2019-01-20T12:01:32.282Z,150.07
2019-01-20T12:05:42.460Z,140.47
2019-01-20T12:09:52.677Z,123.30
2019-01-20T12:14:00.614Z,123.97
2019-01-20T12:18:08.612Z,121.13
2019-01-20T12:22:18.666Z,127.03
2019-01-20T12:26:26.590Z,127.13
2019-01-20T12:30:36.379Z,141.73
2019-01-20T12:34:44.505Z,147.83
2019-01-20T12:38:52.559Z,115.10
2019-01-20T12:43:00.846Z,127.07
2019-01-20T12:47:08.705Z,144.90
2019-01-20T12:51:16.757Z,128.70
2019-01-20T12:55:24.534Z,145.20
2019-01-20T12:59:32.275Z,181.77
2019-01-20T13:03:41.418Z,151.07
2019-01-20T13:07:49.480Z,153.97
2019-01-20T13:11:58.539Z,173.20
2019-01-20T13:16:08.585Z,162.73
2019-01-20T13:20:18.875Z,189.53
2019-01-20T13:24:26.631Z,179.20
2019-01-20T13:28:35.785Z,207.67
2019-01-20T13:32:44.127Z,210.47
2019-01-20T13:36:52.360Z,220.33
2019-01-20T13:41:07.036Z,226.73
2019-01-20T13:45:15.049Z,244.13
2019-01-20T13:49:23.114Z,227.17
2019-01-20T13:53:31.347Z,224.83
2019-01-20T13:57:39.906Z,192.40
2019-01-20T14:01:47.952Z,204.03
2019-01-20T14:05:55.883Z,201.47
2019-01-20T14:10:05.348Z,244.33
2019-01-20T14:14:14.330Z,220.30
2019-01-20T14:18:22.027Z,228.57
2019-01-20T14:22:32.867Z,222.83
2019-01-20T14:26:41.081Z,210.87
2019-01-20T14:30:48.754Z,227.00
2019-01-20T14:34:56.820Z,171.17
2019-01-20T14:39:08.341Z,165.63
2019-01-20T14:43:16.401Z,171.80
2019-01-20T14:47:24.727Z,133.17
2019-01-20T14:51:32.655Z,140.43
2019-01-20T14:55:40.547Z,160.07
2019-01-20T14:59:48.284Z,152.90
2019-01-20T15:03:55.951Z,172.67
2019-01-20T15:08:04.723Z,160.83
2019-01-20T15:12:13.112Z,163.33
2019-01-20T15:16:20.854Z,169.40
2019-01-20T15:20:28.600Z,182.33
2019-01-20T15:24:36.365Z,205.73
2019-01-20T15:28:44.420Z,195.17
2019-01-20T15:32:52.713Z,159.00
2019-01-20T15:37:00.727Z,224.53
2019-01-20T15:41:09.590Z,217.73
2019-01-20T15:45:18.617Z,199.83
2019-01-20T15:49:26.512Z,173.43
2019-01-20T15:53:34.888Z,217.00
2019-01-20T15:57:43.493Z,225.47
2019-01-20T16:01:51.982Z,195.50
2019-01-20T16:05:59.931Z,197.03
2019-01-20T16:10:09.439Z,237.90
2019-01-20T16:14:17.227Z,353.57
2019-01-20T16:18:25.310Z,252.73
2019-01-20T16:22:33.693Z,265.13
2019-01-20T16:26:42.454Z,242.07
2019-01-20T16:30:50.104Z,201.13
2019-01-20T16:34:57.907Z,226.67
2019-01-20T16:39:08.499Z,171.80
2019-01-20T16:43:16.736Z,202.10
2019-01-20T16:47:25.036Z,213.63
2019-01-20T16:51:34.754Z,218.57
2019-01-20T16:55:43.227Z,263.20
2019-01-20T16:59:51.707Z,251.40
2019-01-20T17:03:59.940Z,272.10
2019-01-20T17:08:08.037Z,236.83
2019-01-20T17:12:15.883Z,209.90
2019-01-20T17:16:24.393Z,244.73
2019-01-20T17:20:33.049Z,227.47
2019-01-20T17:24:40.890Z,253.67
2019-01-20T17:28:49.730Z,223.90
2019-01-20T17:32:57.403Z,275.57
2019-01-20T17:37:05.211Z,248.90
2019-01-20T17:41:13.616Z,254.70
2019-01-20T17:45:26.689Z,220.10
2019-01-20T17:49:34.308Z,214.77
2019-01-20T17:53:42.234Z,174.87
2019-01-20T17:57:50.251Z,197.67
2019-01-20T18:01:58.280Z,198.03
2019-01-20T18:06:06.438Z,182.67
2019-01-20T18:10:15.683Z,204.73
2019-01-20T18:14:23.805Z,242.03
2019-01-20T18:18:32.524Z,184.77
2019-01-20T18:22:41.042Z,188.40
2019-01-20T18:26:51.114Z,224.57
2019-01-20T18:31:01.277Z,198.00
2019-01-20T18:35:10.023Z,156.63
2019-01-20T18:39:18.077Z,205.23
2019-01-20T18:43:27.876Z,205.07
2019-01-20T18:47:35.864Z,192.73
2019-01-20T18:51:43.733Z,162.57
2019-01-20T18:55:51.855Z,158.50
2019-01-20T18:59:59.537Z,140.97
2019-01-20T19:04:07.615Z,146.00
2019-01-20T19:08:16.696Z,176.10
2019-01-20T19:12:28.313Z,156.33
2019-01-20T19:16:35.745Z,220.23
2019-01-20T19:20:43.283Z,169.70
2019-01-20T19:24:51.701Z,156.30
2019-01-20T19:29:03.084Z,152.13
2019-01-20T19:33:09.406Z,188.33
2019-01-20T19:37:17.175Z,176.63
2019-01-20T19:41:25.262Z,179.50
2019-01-20T19:45:35.266Z,176.43
2019-01-20T19:49:43.368Z,220.87
2019-01-20T19:53:51.481Z,154.20
2019-01-20T19:57:59.166Z,145.53
2019-01-20T20:02:07.133Z,162.57
2019-01-20T20:06:15.178Z,146.77
2019-01-20T20:10:24.791Z,131.83
2019-01-20T20:14:32.341Z,161.03
2019-01-20T20:18:42.193Z,192.83
2019-01-20T20:22:50.566Z,172.67
2019-01-20T20:26:58.670Z,144.07
2019-01-20T20:31:07.725Z,115.17
2019-01-20T20:35:17.433Z,95.70
2019-01-20T20:39:25.933Z,83.53
2019-01-20T20:43:33.554Z,64.63
2019-01-20T20:47:41.642Z,69.77
2019-01-20T20:51:49.713Z,67.27
2019-01-20T20:55:58.839Z,66.77
2019-01-20T21:00:12.354Z,68.57
2019-01-20T21:04:20.157Z,61.63
2019-01-20T21:08:27.902Z,47.73
2019-01-20T21:12:35.785Z,51.67
2019-01-20T21:16:43.813Z,51.77
2019-01-20T21:20:52.718Z,56.87
2019-01-20T21:25:01.026Z,63.43
2019-01-20T21:29:09.042Z,70.60
2019-01-20T21:33:17.088Z,53.80
2019-01-20T21:37:25.125Z,50.97
2019-01-20T21:41:33.152Z,49.03
2019-01-20T21:45:41.304Z,48.30
2019-01-20T21:49:49.129Z,56.53
2019-01-20T21:53:57.088Z,67.37
2019-01-20T21:58:05.531Z,50.07
2019-01-20T22:02:13.555Z,37.77
2019-01-20T22:06:21.443Z,36.73
2019-01-20T22:10:29.365Z,53.03
2019-01-20T22:14:37.183Z,54.37
2019-01-20T22:18:45.205Z,49.40
2019-01-20T22:22:53.935Z,44.60
2019-01-20T22:27:01.858Z,42.87
2019-01-20T22:31:09.598Z,38.73
2019-01-20T22:35:17.743Z,40.40
2019-01-20T22:39:26.473Z,44.77
2019-01-20T22:43:34.213Z,64.73
2019-01-20T22:47:42.362Z,56.00
2019-01-20T22:51:50.382Z,60.43
2019-01-20T22:55:57.997Z,48.80
2019-01-20T23:00:15.054Z,62.40
2019-01-20T23:04:22.762Z,78.00
2019-01-20T23:08:31.351Z,92.33
2019-01-20T23:12:39.452Z,80.40
2019-01-20T23:16:47.168Z,84.00
2019-01-20T23:20:54.986Z,93.60
2019-01-20T23:25:03.127Z,97.50
2019-01-20T23:29:10.898Z,97.37
2019-01-20T23:33:18.933Z,80.30
2019-01-20T23:37:27.004Z,70.90
2019-01-20T23:41:34.921Z,71.10
2019-01-20T23:45:42.538Z,68.87
2019-01-20T23:49:50.602Z,56.47
2019-01-20T23:53:58.325Z,72.33
2019-01-20T23:58:06.396Z,62.73
